createdAt,value
2023-01-13T00:00:12.942Z,19.27
2023-01-13T00:02:39.591Z,20.08
2023-01-13T00:05:07.079Z,19.45
2023-01-13T00:07:33.693Z,20.30
2023-01-13T00:10:00.280Z,15.52
2023-01-13T00:12:26.924Z,20.92
2023-01-13T00:14:53.549Z,24.48
2023-01-13T00:17:20.189Z,27.52
2023-01-13T00:19:46.844Z,27.25
2023-01-13T00:22:13.449Z,28.25
2023-01-13T00:24:40.058Z,21.50
2023-01-13T00:27:06.624Z,28.13
2023-01-13T00:29:33.258Z,27.55
2023-01-13T00:31:59.837Z,30.75
2023-01-13T00:34:26.431Z,26.65
2023-01-13T00:36:53.008Z,30.67
2023-01-13T00:39:19.665Z,32.00
2023-01-13T00:42:04.744Z,32.15
2023-01-13T00:44:31.357Z,34.15
2023-01-13T00:46:57.918Z,30.85
2023-01-13T00:49:24.711Z,32.25
2023-01-13T00:51:51.283Z,35.05
2023-01-13T00:54:18.590Z,22.45
2023-01-13T00:56:45.146Z,24.52
2023-01-13T00:59:13.426Z,30.70
2023-01-13T01:01:41.020Z,30.25
2023-01-13T01:04:07.794Z,26.00
2023-01-13T01:06:34.419Z,37.70
2023-01-13T01:09:01.130Z,28.05
2023-01-13T01:11:30.207Z,29.98
2023-01-13T01:13:57.976Z,27.13
2023-01-13T01:16:26.098Z,24.45
2023-01-13T01:18:53.525Z,26.83
2023-01-13T01:21:21.322Z,30.52
2023-01-13T01:23:47.909Z,29.77
2023-01-13T01:26:19.804Z,30.60
2023-01-13T01:28:46.621Z,23.00
2023-01-13T01:31:16.245Z,23.17
2023-01-13T01:33:43.053Z,25.25
2023-01-13T01:36:11.527Z,30.17
2023-01-13T01:38:38.390Z,30.33
2023-01-13T01:41:05.100Z,25.33
2023-01-13T01:44:04.424Z,28.02
2023-01-13T01:46:39.555Z,27.35
2023-01-13T01:49:12.661Z,34.67
2023-01-13T01:51:45.858Z,31.63
2023-01-13T01:54:19.827Z,24.60
2023-01-13T01:56:47.271Z,33.58
2023-01-13T01:59:14.423Z,28.38
2023-01-13T02:01:42.059Z,42.72
2023-01-13T02:04:15.601Z,40.40
2023-01-13T02:06:44.034Z,48.45
2023-01-13T02:09:11.257Z,28.77
2023-01-13T02:11:56.542Z,26.92
2023-01-13T02:14:25.677Z,31.55
2023-01-13T02:17:11.068Z,28.85
2023-01-13T02:20:01.897Z,31.02
2023-01-13T02:22:36.023Z,31.40
2023-01-13T02:25:13.323Z,29.60
2023-01-13T02:27:56.178Z,28.73
2023-01-13T02:31:06.850Z,33.80
2023-01-13T02:34:01.060Z,33.65
2023-01-13T02:36:52.322Z,26.42
2023-01-13T02:39:29.984Z,34.53
2023-01-13T02:42:19.680Z,36.20
2023-01-13T02:44:50.891Z,27.15
2023-01-13T02:47:27.904Z,31.00
2023-01-13T02:50:04.370Z,25.48
2023-01-13T02:52:40.140Z,32.72
2023-01-13T02:55:29.479Z,35.53
2023-01-13T02:57:58.783Z,41.75
2023-01-13T03:00:26.517Z,41.17
2023-01-13T03:02:53.230Z,25.80
2023-01-13T03:05:19.866Z,34.45
2023-01-13T03:08:11.190Z,35.78
2023-01-13T03:10:58.807Z,30.25
2023-01-13T03:13:37.661Z,33.67
2023-01-13T03:16:24.041Z,36.30
2023-01-13T03:19:28.379Z,34.03
2023-01-13T03:21:57.764Z,35.50
2023-01-13T03:24:37.165Z,35.53
2023-01-13T03:27:12.583Z,34.45
2023-01-13T03:29:48.448Z,30.10
2023-01-13T03:32:23.383Z,38.10
2023-01-13T03:35:08.296Z,35.75
2023-01-13T03:37:38.714Z,24.63
2023-01-13T03:40:15.826Z,39.85
2023-01-13T03:43:04.987Z,31.08
2023-01-13T03:45:33.230Z,33.13
2023-01-13T03:48:00.244Z,29.00
2023-01-13T03:50:30.323Z,35.17
2023-01-13T03:53:00.829Z,33.33
2023-01-13T03:55:35.982Z,31.67
2023-01-13T03:58:15.020Z,32.92
2023-01-13T04:00:49.939Z,29.33
2023-01-13T04:03:37.857Z,33.53
2023-01-13T04:06:28.444Z,27.65
2023-01-13T04:09:03.532Z,31.55
2023-01-13T04:11:38.022Z,25.70
2023-01-13T04:14:06.192Z,35.97
2023-01-13T04:16:32.985Z,40.50
2023-01-13T04:18:59.535Z,38.38
2023-01-13T04:21:26.295Z,25.20
2023-01-13T04:23:53.934Z,35.50
2023-01-13T04:26:20.571Z,38.03
2023-01-13T04:28:47.180Z,38.10
2023-01-13T04:31:13.871Z,35.00
2023-01-13T04:33:40.447Z,37.95
2023-01-13T04:36:07.379Z,38.60
2023-01-13T04:38:33.963Z,37.72
2023-01-13T04:41:00.680Z,28.75
2023-01-13T04:43:27.359Z,40.90
2023-01-13T04:45:54.011Z,31.30
2023-01-13T04:48:20.563Z,34.90
2023-01-13T04:50:47.138Z,28.30
2023-01-13T04:53:13.738Z,38.70
2023-01-13T04:55:40.316Z,34.08
2023-01-13T04:58:09.197Z,33.33
2023-01-13T05:00:35.878Z,40.42
2023-01-13T05:03:02.764Z,39.88
2023-01-13T05:05:30.031Z,34.53
2023-01-13T05:07:57.171Z,35.15
2023-01-13T05:10:24.185Z,29.95
2023-01-13T05:13:10.165Z,22.95
2023-01-13T05:15:55.390Z,35.28
2023-01-13T05:18:22.116Z,34.97
2023-01-13T05:20:49.620Z,26.55
2023-01-13T05:23:34.705Z,38.78
2023-01-13T05:26:01.479Z,35.20
2023-01-13T05:28:32.177Z,29.83
2023-01-13T05:30:59.037Z,26.98
2023-01-13T05:33:25.817Z,33.03
2023-01-13T05:35:52.467Z,29.48
2023-01-13T05:38:19.073Z,28.75
2023-01-13T05:41:04.470Z,26.88
2023-01-13T05:43:32.915Z,32.20
2023-01-13T05:46:09.844Z,22.30
2023-01-13T05:48:41.707Z,30.75
2023-01-13T05:51:10.854Z,26.10
2023-01-13T05:53:37.504Z,26.77
2023-01-13T05:56:05.232Z,25.02
2023-01-13T05:58:31.895Z,25.52
2023-01-13T06:01:07.166Z,23.67
2023-01-13T06:03:34.139Z,23.02
2023-01-13T06:06:02.158Z,26.67
2023-01-13T06:08:29.024Z,25.13
2023-01-13T06:10:55.638Z,26.15
2023-01-13T06:13:22.918Z,23.65
2023-01-13T06:15:49.450Z,24.90
2023-01-13T06:18:16.077Z,14.68
2023-01-13T06:20:42.947Z,34.20
2023-01-13T06:23:10.861Z,22.25
2023-01-13T06:25:47.067Z,24.75
2023-01-13T06:28:13.627Z,19.73
2023-01-13T06:30:43.891Z,24.27
2023-01-13T06:33:14.238Z,21.88
2023-01-13T06:35:44.613Z,21.65
2023-01-13T06:38:13.400Z,21.75
2023-01-13T06:40:42.077Z,15.18
2023-01-13T06:43:17.726Z,21.85
2023-01-13T06:45:53.116Z,17.65
2023-01-13T06:48:25.518Z,16.02
2023-01-13T06:50:52.231Z,14.57
2023-01-13T06:53:19.756Z,24.45
2023-01-13T06:55:46.697Z,19.65
2023-01-13T06:58:13.418Z,20.75
2023-01-13T07:00:40.128Z,19.23
2023-01-13T07:03:14.634Z,15.85
2023-01-13T07:05:43.257Z,22.20
2023-01-13T07:08:10.445Z,17.25
2023-01-13T07:10:37.331Z,20.23
2023-01-13T07:13:24.079Z,16.23
2023-01-13T07:15:55.787Z,24.15
2023-01-13T07:18:22.414Z,12.20
2023-01-13T07:20:56.745Z,15.85
2023-01-13T07:23:23.537Z,8.77
2023-01-13T07:25:50.432Z,8.23
2023-01-13T07:28:17.513Z,7.70
2023-01-13T07:30:44.154Z,8.07
2023-01-13T07:33:10.735Z,17.00
2023-01-13T07:35:37.317Z,13.75
2023-01-13T07:38:03.985Z,10.90
2023-01-13T07:40:30.561Z,9.75
2023-01-13T07:43:15.843Z,7.55
2023-01-13T07:45:42.596Z,12.38
2023-01-13T07:48:09.142Z,7.88
2023-01-13T07:50:35.758Z,14.52
2023-01-13T07:53:02.384Z,11.68
2023-01-13T07:55:29.059Z,17.73
2023-01-13T07:57:55.799Z,12.30
2023-01-13T08:00:22.946Z,9.25
2023-01-13T08:02:49.507Z,8.90
2023-01-13T08:05:16.545Z,4.95
2023-01-13T08:07:43.155Z,8.55
2023-01-13T08:10:10.165Z,22.83
2023-01-13T08:12:57.063Z,10.23
2023-01-13T08:15:23.999Z,9.02
2023-01-13T08:17:50.697Z,8.40
2023-01-13T08:20:17.390Z,10.13
2023-01-13T08:22:44.389Z,8.50
2023-01-13T08:25:11.049Z,10.68
2023-01-13T08:27:37.757Z,13.55
2023-01-13T08:30:05.875Z,12.68
2023-01-13T08:32:32.643Z,13.43
2023-01-13T08:34:59.202Z,12.82
2023-01-13T08:37:25.717Z,10.77
2023-01-13T08:39:52.364Z,12.40
2023-01-13T08:42:18.905Z,12.48
2023-01-13T08:44:45.498Z,13.32
2023-01-13T08:47:12.082Z,12.45
2023-01-13T08:49:38.693Z,12.80
2023-01-13T08:52:05.636Z,13.35
2023-01-13T08:54:32.282Z,12.77
2023-01-13T08:56:58.949Z,7.47
2023-01-13T08:59:25.621Z,10.52
2023-01-13T09:01:52.482Z,9.43
2023-01-13T09:04:24.074Z,11.05
2023-01-13T09:06:51.281Z,14.07
2023-01-13T09:09:18.192Z,11.90
2023-01-13T09:12:05.947Z,13.45
2023-01-13T09:14:34.231Z,12.10
2023-01-13T09:17:00.973Z,12.68
2023-01-13T09:19:28.409Z,17.77
2023-01-13T09:21:57.082Z,12.77
2023-01-13T09:24:24.154Z,9.93
2023-01-13T09:26:50.717Z,10.18
2023-01-13T09:29:17.625Z,16.58
2023-01-13T09:31:44.545Z,10.55
2023-01-13T09:34:39.594Z,11.60
2023-01-13T09:37:06.991Z,17.45
2023-01-13T09:39:34.498Z,14.65
2023-01-13T09:42:48.350Z,8.43
2023-01-13T09:45:24.014Z,16.47
2023-01-13T09:48:19.372Z,9.43
2023-01-13T09:50:50.829Z,14.00
2023-01-13T09:53:23.167Z,8.82
2023-01-13T09:55:49.875Z,13.10
2023-01-13T09:58:18.089Z,13.18
2023-01-13T10:01:00.211Z,13.63
2023-01-13T10:03:29.628Z,12.32
2023-01-13T10:06:02.269Z,11.57
2023-01-13T10:08:33.285Z,18.60
2023-01-13T10:11:43.823Z,14.18
2023-01-13T10:14:24.063Z,14.30
2023-01-13T10:17:00.442Z,10.65
2023-01-13T10:19:34.728Z,18.02
2023-01-13T10:22:42.778Z,12.85
2023-01-13T10:25:21.636Z,20.42
2023-01-13T10:27:50.380Z,18.63
2023-01-13T10:30:31.502Z,20.05
2023-01-13T10:33:09.346Z,12.52
2023-01-13T10:35:53.517Z,16.98
2023-01-13T10:38:26.047Z,17.70
2023-01-13T10:40:56.164Z,20.73
2023-01-13T10:43:23.116Z,14.43
2023-01-13T10:45:58.657Z,12.57
2023-01-13T10:48:39.798Z,17.33
2023-01-13T10:51:29.058Z,17.52
2023-01-13T10:54:12.661Z,16.15
2023-01-13T10:56:44.712Z,11.15
2023-01-13T10:59:22.305Z,7.72
2023-01-13T11:01:59.632Z,15.45
2023-01-13T11:04:34.459Z,18.33
2023-01-13T11:07:02.366Z,16.75
2023-01-13T11:09:30.381Z,22.42
2023-01-13T11:11:57.747Z,23.10
2023-01-13T11:14:40.073Z,15.05
2023-01-13T11:17:19.852Z,13.52
2023-01-13T11:20:00.506Z,15.80
2023-01-13T11:22:32.264Z,13.27
2023-01-13T11:25:04.671Z,18.48
2023-01-13T11:27:41.029Z,18.08
2023-01-13T11:30:13.767Z,16.33
2023-01-13T11:33:15.885Z,14.23
2023-01-13T11:35:51.605Z,23.08
2023-01-13T11:38:48.035Z,15.88
2023-01-13T11:41:23.481Z,11.13
2023-01-13T11:44:08.183Z,13.18
2023-01-13T11:46:34.929Z,9.65
2023-01-13T11:49:02.003Z,16.17
2023-01-13T11:51:40.681Z,7.10
2023-01-13T11:54:35.699Z,16.65
2023-01-13T11:57:08.069Z,13.15
2023-01-13T11:59:59.276Z,13.23
2023-01-13T12:02:59.769Z,19.58
2023-01-13T12:05:44.870Z,13.63
2023-01-13T12:08:22.804Z,14.15
2023-01-13T12:11:16.515Z,16.83
2023-01-13T12:14:01.843Z,8.18
2023-01-13T12:16:32.002Z,12.48
2023-01-13T12:19:13.843Z,12.30
2023-01-13T12:21:48.903Z,17.52
2023-01-13T12:24:24.819Z,17.88
2023-01-13T12:27:01.623Z,3.17
2023-01-13T12:29:33.840Z,9.35
2023-01-13T12:32:02.955Z,18.48
2023-01-13T12:34:47.694Z,6.95
2023-01-13T12:37:17.681Z,17.73
2023-01-13T12:40:01.284Z,16.35
2023-01-13T12:43:11.150Z,8.35
2023-01-13T12:45:37.728Z,8.68
2023-01-13T12:48:05.151Z,12.15
2023-01-13T12:50:31.607Z,9.43
2023-01-13T12:53:31.922Z,10.18
2023-01-13T12:56:40.768Z,9.20
2023-01-13T12:59:19.433Z,5.25
2023-01-13T13:01:49.572Z,10.75
2023-01-13T13:04:43.283Z,10.70
2023-01-13T13:07:13.223Z,6.60
2023-01-13T13:10:04.980Z,10.07
2023-01-13T13:12:50.010Z,6.13
2023-01-13T13:15:20.593Z,12.63
2023-01-13T13:18:02.571Z,8.77
2023-01-13T13:21:06.951Z,5.78
2023-01-13T13:23:33.483Z,9.35
2023-01-13T13:26:12.141Z,7.88
2023-01-13T13:28:44.821Z,7.45
2023-01-13T13:31:21.085Z,5.75
2023-01-13T13:33:54.239Z,7.82
2023-01-13T13:36:48.551Z,7.53
2023-01-13T13:42:46.766Z,8.55
2023-01-13T13:45:40.637Z,5.65
2023-01-13T13:48:27.389Z,6.97
2023-01-13T13:50:59.183Z,7.70
2023-01-13T13:53:28.669Z,1.65
2023-01-13T13:55:57.488Z,6.13
2023-01-13T13:58:26.322Z,6.72
2023-01-13T14:00:54.264Z,11.85
2023-01-13T14:03:35.920Z,7.95
2023-01-13T14:06:05.901Z,16.13
2023-01-13T14:08:46.099Z,4.30
2023-01-13T14:11:26.427Z,7.80
2023-01-13T14:14:11.862Z,5.45
2023-01-13T14:16:40.109Z,11.30
2023-01-13T14:19:07.269Z,6.63
2023-01-13T14:21:33.869Z,11.27
2023-01-13T14:24:05.532Z,11.68
2023-01-13T14:26:32.440Z,13.57
2023-01-13T14:29:01.058Z,15.73
2023-01-13T14:31:28.029Z,12.00
2023-01-13T14:33:59.501Z,11.15
2023-01-13T14:36:32.223Z,12.07
2023-01-13T14:39:05.171Z,10.80
2023-01-13T14:41:45.391Z,5.55
2023-01-13T14:44:27.075Z,13.57
2023-01-13T14:46:56.464Z,12.07
2023-01-13T14:49:36.345Z,9.45
2023-01-13T14:52:24.028Z,10.60
2023-01-13T14:54:52.617Z,12.25
2023-01-13T14:57:39.654Z,16.65
2023-01-13T15:00:20.711Z,6.93
2023-01-13T15:02:50.059Z,9.63
2023-01-13T15:05:19.413Z,10.23
2023-01-13T15:07:54.307Z,10.70
2023-01-13T15:10:24.018Z,10.60
2023-01-13T15:12:52.436Z,10.10
2023-01-13T15:15:39.072Z,7.53
2023-01-13T15:18:12.603Z,12.05
2023-01-13T15:20:40.433Z,11.75
2023-01-13T15:23:07.035Z,11.30
2023-01-13T15:25:40.774Z,9.80
2023-01-13T15:30:34.133Z,9.48
2023-01-13T15:33:00.694Z,8.32
2023-01-13T15:35:28.506Z,8.18
2023-01-13T15:37:56.571Z,10.30
2023-01-13T15:40:31.359Z,15.23
2023-01-13T15:43:16.969Z,14.10
2023-01-13T15:46:02.632Z,14.85
2023-01-13T15:48:31.997Z,9.90
2023-01-13T15:50:59.633Z,8.45
2023-01-13T15:53:27.627Z,11.23
2023-01-13T15:55:56.899Z,12.55
2023-01-13T15:58:28.153Z,8.85
2023-01-13T16:00:55.123Z,14.07
2023-01-13T16:03:21.881Z,11.80
2023-01-13T16:05:48.828Z,13.35
2023-01-13T16:08:20.193Z,6.47
2023-01-13T16:10:47.153Z,6.13
2023-01-13T16:13:14.715Z,9.38
2023-01-13T16:15:43.801Z,8.70
2023-01-13T16:18:19.648Z,7.70
2023-01-13T16:20:46.972Z,10.57
2023-01-13T16:23:13.951Z,11.05
2023-01-13T16:25:43.646Z,13.10
2023-01-13T16:28:19.865Z,10.38
2023-01-13T16:30:46.495Z,9.75
2023-01-13T16:33:13.058Z,8.55
2023-01-13T16:36:08.962Z,11.93
2023-01-13T16:38:26.248Z,8.20
2023-01-13T16:40:52.778Z,7.22
2023-01-13T16:43:19.420Z,12.10
2023-01-13T16:45:45.997Z,13.77
2023-01-13T16:48:19.445Z,15.02
2023-01-13T16:50:46.294Z,30.60
2023-01-13T16:53:12.928Z,21.33
2023-01-13T16:55:40.886Z,13.57
2023-01-13T16:58:15.674Z,10.00
2023-01-13T17:00:42.310Z,10.52
2023-01-13T17:03:08.940Z,12.57
2023-01-13T17:05:39.392Z,16.15
2023-01-13T17:08:06.069Z,15.35
2023-01-13T17:10:32.574Z,13.20
2023-01-13T17:13:04.572Z,14.07
2023-01-13T17:15:40.183Z,12.30
2023-01-13T17:18:06.727Z,12.43
2023-01-13T17:20:33.305Z,12.02
2023-01-13T17:22:59.854Z,15.50
2023-01-13T17:25:26.440Z,8.02
2023-01-13T17:27:53.001Z,11.60
2023-01-13T17:30:20.794Z,23.02
2023-01-13T17:32:47.381Z,10.13
2023-01-13T17:35:18.781Z,14.30
2023-01-13T17:37:45.629Z,14.02
2023-01-13T17:40:12.611Z,12.00
2023-01-13T17:42:39.156Z,11.23
2023-01-13T17:45:06.947Z,7.50
2023-01-13T17:47:33.553Z,12.00
2023-01-13T17:50:00.107Z,7.43
2023-01-13T17:52:26.648Z,14.43
2023-01-13T17:54:53.159Z,9.80
2023-01-13T17:57:19.725Z,12.18
2023-01-13T17:59:47.918Z,8.25
2023-01-13T18:02:14.929Z,15.52
2023-01-13T18:04:42.251Z,12.90
2023-01-13T18:07:08.854Z,10.98
2023-01-13T18:09:35.384Z,12.90
2023-01-13T18:12:02.157Z,11.00
2023-01-13T18:14:28.721Z,11.65
2023-01-13T18:16:55.424Z,12.65
2023-01-13T18:19:40.613Z,15.57
2023-01-13T18:22:25.739Z,13.48
2023-01-13T18:25:10.997Z,18.27
2023-01-13T18:27:39.919Z,11.80
2023-01-13T18:30:07.051Z,12.52
2023-01-13T18:32:33.949Z,12.90
2023-01-13T18:35:06.519Z,9.05
2023-01-13T18:37:35.986Z,14.80
2023-01-13T18:40:03.602Z,16.70
2023-01-13T18:42:48.861Z,17.05
2023-01-13T18:45:15.520Z,11.93
2023-01-13T18:47:42.336Z,13.70
2023-01-13T18:50:10.665Z,11.75
2023-01-13T18:52:37.238Z,11.55
2023-01-13T18:55:03.937Z,9.38
2023-01-13T18:57:30.517Z,11.20
2023-01-13T18:59:57.640Z,8.52
2023-01-13T19:02:26.547Z,5.45
2023-01-13T19:04:57.169Z,5.07
2023-01-13T19:07:28.244Z,8.35
2023-01-13T19:09:56.011Z,13.18
2023-01-13T19:12:30.899Z,17.00
2023-01-13T19:14:58.371Z,13.73
2023-01-13T19:17:26.911Z,17.17
2023-01-13T19:19:55.082Z,8.52
2023-01-13T19:22:30.791Z,8.80
2023-01-13T19:24:57.850Z,9.63
2023-01-13T19:27:25.134Z,10.15
2023-01-13T19:29:53.655Z,9.25
2023-01-13T19:32:21.976Z,15.52
2023-01-13T19:34:51.680Z,12.75
2023-01-13T19:37:19.001Z,14.57
2023-01-13T19:39:45.670Z,15.50
2023-01-13T19:42:31.446Z,11.55
2023-01-13T19:45:16.957Z,10.05
2023-01-13T19:47:45.465Z,15.63
2023-01-13T19:50:13.486Z,15.07
2023-01-13T19:52:41.418Z,12.98
2023-01-13T19:55:08.172Z,14.35
2023-01-13T19:57:34.728Z,10.20
2023-01-13T20:00:01.287Z,15.32
2023-01-13T20:02:28.172Z,7.93
2023-01-13T20:04:56.167Z,9.65
2023-01-13T20:07:24.632Z,12.18
2023-01-13T20:09:56.344Z,11.63
2023-01-13T20:12:24.177Z,8.27
2023-01-13T20:14:50.732Z,17.55
2023-01-13T20:17:19.372Z,12.20
2023-01-13T20:19:47.782Z,11.38
2023-01-13T20:22:14.424Z,43.35
2023-01-13T20:24:42.138Z,19.45
2023-01-13T20:27:09.217Z,11.35
2023-01-13T20:29:35.805Z,12.55
2023-01-13T20:32:02.924Z,14.05
2023-01-13T20:34:29.803Z,11.98
2023-01-13T20:36:58.415Z,10.85
2023-01-13T20:39:29.047Z,13.52
2023-01-13T20:42:14.193Z,11.07
2023-01-13T20:44:41.117Z,13.18
2023-01-13T20:47:08.017Z,13.48
2023-01-13T20:49:38.823Z,11.40
2023-01-13T20:52:09.466Z,17.58
2023-01-13T20:54:37.272Z,11.43
2023-01-13T20:57:07.796Z,10.85
2023-01-13T20:59:34.337Z,14.57
2023-01-13T21:02:01.138Z,13.23
2023-01-13T21:04:27.784Z,17.55
2023-01-13T21:06:56.029Z,10.82
2023-01-13T21:09:23.677Z,12.70
2023-01-13T21:12:09.305Z,10.60
2023-01-13T21:14:54.281Z,11.30
2023-01-13T21:17:39.388Z,15.02
2023-01-13T21:20:08.361Z,12.27
2023-01-13T21:22:35.793Z,17.05
2023-01-13T21:25:03.686Z,15.43
2023-01-13T21:27:30.742Z,15.77
2023-01-13T21:29:57.423Z,18.00
2023-01-13T21:32:24.270Z,14.75
2023-01-13T21:34:50.976Z,11.25
2023-01-13T21:37:18.527Z,11.15
2023-01-13T21:39:45.059Z,13.88
2023-01-13T21:42:34.335Z,24.42
2023-01-13T21:45:19.565Z,18.73
2023-01-13T21:47:48.958Z,15.07
2023-01-13T21:50:26.927Z,12.07
2023-01-13T21:52:54.437Z,8.02
2023-01-13T21:55:26.908Z,9.63
2023-01-13T21:58:14.233Z,14.75
2023-01-13T22:00:44.579Z,17.35
2023-01-13T22:03:12.474Z,11.77
2023-01-13T22:05:39.318Z,13.13
2023-01-13T22:08:06.391Z,13.75
2023-01-13T22:10:34.173Z,20.17
2023-01-13T22:13:22.069Z,8.57
2023-01-13T22:15:48.745Z,15.95
2023-01-13T22:18:15.314Z,8.25
2023-01-13T22:20:42.096Z,16.63
2023-01-13T22:23:08.758Z,17.50
2023-01-13T22:25:35.290Z,11.98
2023-01-13T22:28:05.919Z,10.77
2023-01-13T22:30:33.141Z,11.00
2023-01-13T22:33:00.126Z,12.95
2023-01-13T22:35:26.927Z,15.40
2023-01-13T22:37:53.518Z,13.77
2023-01-13T22:40:20.153Z,22.60
2023-01-13T22:42:46.732Z,13.15
2023-01-13T22:45:13.906Z,12.98
2023-01-13T22:47:40.652Z,14.15
2023-01-13T22:50:08.150Z,14.30
2023-01-13T22:52:35.265Z,12.50
2023-01-13T22:55:01.901Z,19.42
2023-01-13T22:57:46.771Z,14.45
2023-01-13T23:00:14.827Z,20.80
2023-01-13T23:02:41.460Z,15.23
2023-01-13T23:05:08.430Z,17.35
2023-01-13T23:07:35.616Z,12.43
2023-01-13T23:10:02.689Z,14.07
2023-01-13T23:12:29.291Z,17.05
2023-01-13T23:14:55.847Z,18.40
2023-01-13T23:17:22.390Z,16.40
2023-01-13T23:19:48.923Z,17.67
2023-01-13T23:22:15.555Z,15.57
2023-01-13T23:24:42.097Z,18.00
2023-01-13T23:27:08.668Z,19.25
2023-01-13T23:29:35.189Z,13.68
2023-01-13T23:32:01.741Z,21.67
2023-01-13T23:34:28.270Z,21.50
2023-01-13T23:36:54.866Z,17.13
2023-01-13T23:39:21.396Z,16.35
2023-01-13T23:41:47.923Z,15.60
2023-01-13T23:44:14.472Z,16.48
2023-01-13T23:46:41.074Z,17.23
2023-01-13T23:49:07.797Z,21.95
2023-01-13T23:51:34.403Z,15.48
2023-01-13T23:54:01.289Z,13.73
2023-01-13T23:56:30.061Z,15.65
2023-01-13T23:58:57.092Z,18.17
